Time;durP1;ratioP1;P1;durP2;ratioP2;P2;SDS_P1;SDS_P2;PMS_P1;PMS_P2;Temp;Humidity;BMP_temperature;BMP_pressure;BME280_temperature;BME280_humidity;BME280_pressure;Samples;Min_cycle;Max_cycle;Signal;HPM_P1;HPM_P2
2021/12/06 00:02:26;;;;;;;56.72;24.98;;;4.50;99.70;;;;;;4939433;29;20055;-79
2021/12/06 00:04:52;;;;;;;54.03;25.10;;;4.50;99.80;;;;;;4955328;29;20051;-78
2021/12/06 00:07:22;;;;;;;55.50;24.83;;;4.60;99.70;;;;;;4955731;29;20403;-78
2021/12/06 00:09:48;;;;;;;52.35;23.27;;;4.60;99.60;;;;;;4955620;28;20055;-78
2021/12/06 00:12:16;;;;;;;48.95;23.08;;;4.50;99.80;;;;;;4955066;28;20054;-78
2021/12/06 00:14:42;;;;;;;50.20;23.67;;;4.60;99.80;;;;;;4955418;28;20480;-78
2021/12/06 00:17:11;;;;;;;48.15;22.02;;;4.60;99.70;;;;;;4939021;29;20521;-79
2021/12/06 00:19:37;;;;;;;54.67;23.20;;;4.50;99.80;;;;;;4955138;29;20051;-78
2021/12/06 00:22:06;;;;;;;48.42;22.02;;;4.50;99.60;;;;;;4955026;28;20054;-78
2021/12/06 00:24:32;;;;;;;50.92;23.52;;;4.40;99.50;;;;;;4955316;29;20057;-78
2021/12/06 00:26:58;;;;;;;51.28;23.60;;;4.40;99.70;;;;;;4955023;28;20137;-78
2021/12/06 00:29:23;;;;;;;55.80;23.77;;;4.30;99.80;;;;;;4954523;28;20093;-78
2021/12/06 00:31:50;;;;;;;53.08;23.85;;;4.30;99.90;;;;;;4954865;29;20058;-78
2021/12/06 00:34:18;;;;;;;52.70;22.80;;;4.30;99.90;;;;;;4954941;29;20059;-79
2021/12/06 00:36:53;;;;;;;52.80;23.02;;;4.30;99.90;;;;;;4954972;28;20106;-78
2021/12/06 00:39:21;;;;;;;50.90;23.20;;;4.30;99.90;;;;;;4954808;28;20047;-78
2021/12/06 00:41:47;;;;;;;51.92;24.48;;;4.40;99.80;;;;;;4954949;29;20493;-78
2021/12/06 00:44:13;;;;;;;59.13;24.70;;;4.50;99.80;;;;;;4938634;29;20044;-78
2021/12/06 00:46:39;;;;;;;50.33;22.75;;;4.50;99.90;;;;;;4954910;29;20051;-78
2021/12/06 00:49:06;;;;;;;53.40;22.88;;;4.70;99.80;;;;;;4938755;29;20046;-78
2021/12/06 00:51:32;;;;;;;64.22;25.65;;;4.70;99.60;;;;;;4954799;29;20376;-78
2021/12/06 00:53:58;;;;;;;56.40;24.13;;;4.80;99.70;;;;;;4954502;28;20117;-78
2021/12/06 00:56:24;;;;;;;52.85;23.60;;;4.70;99.50;;;;;;4954647;28;20046;-79
2021/12/06 00:58:50;;;;;;;55.60;23.98;;;4.70;99.60;;;;;;4954545;28;20089;-78
2021/12/06 01:01:16;;;;;;;49.67;23.02;;;4.70;99.70;;;;;;4922536;29;20086;-78
2021/12/06 01:03:43;;;;;;;51.17;22.85;;;4.70;99.80;;;;;;4954364;28;20051;-78
2021/12/06 01:06:11;;;;;;;51.15;23.38;;;4.80;99.70;;;;;;4954626;28;20526;-79
2021/12/06 01:08:37;;;;;;;54.85;23.75;;;4.90;99.50;;;;;;4954451;29;20407;-78
2021/12/06 01:11:05;;;;;;;54.13;23.60;;;4.90;99.50;;;;;;4953510;28;20047;-80
2021/12/06 01:13:31;;;;;;;50.40;22.10;;;5.00;99.50;;;;;;4954660;28;20043;-78
2021/12/06 01:15:57;;;;;;;47.63;21.70;;;5.10;99.40;;;;;;4954379;28;20487;-78
2021/12/06 01:18:24;;;;;;;47.67;21.02;;;5.20;99.40;;;;;;4954440;28;20046;-78
2021/12/06 01:21:04;;;;;;;43.20;21.30;;;5.30;99.30;;;;;;4954321;28;20054;-78
2021/12/06 01:23:43;;;;;;;46.80;22.05;;;5.30;99.10;;;;;;4954272;28;20048;-79
2021/12/06 01:31:49;;;;;;;55.05;24.48;;;5.00;99.10;;;;;;4926659;29;20522;-79
2021/12/06 01:39:41;;;;;;;59.20;24.90;;;4.90;99.50;;;;;;4954343;29;20062;-79
2021/12/06 01:42:08;;;;;;;55.70;22.67;;;5.00;99.50;;;;;;4938267;29;20129;-78
2021/12/06 01:44:39;;;;;;;50.40;23.65;;;4.90;99.40;;;;;;4938003;29;20125;-79
2021/12/06 01:47:09;;;;;;;59.60;25.98;;;4.90;99.40;;;;;;4954164;29;20054;-79
2021/12/06 01:49:42;;;;;;;56.75;24.58;;;4.90;99.30;;;;;;4954212;28;20059;-79
2021/12/06 01:52:15;;;;;;;57.88;25.13;;;4.80;99.40;;;;;;4954045;28;20066;-79
2021/12/06 01:54:41;;;;;;;52.67;23.23;;;4.90;99.60;;;;;;4954194;29;20055;-79
2021/12/06 01:57:08;;;;;;;52.42;23.25;;;5.00;99.60;;;;;;4937862;29;20051;-79
2021/12/06 01:59:33;;;;;;;53.55;22.25;;;5.10;99.40;;;;;;4937623;29;20059;-79
2021/12/06 02:01:59;;;;;;;56.92;24.20;;;5.00;99.30;;;;;;4954033;28;20043;-78
2021/12/06 02:04:28;;;;;;;55.58;24.90;;;4.90;99.50;;;;;;4954246;28;20483;-78
2021/12/06 02:06:54;;;;;;;52.72;23.80;;;5.00;99.50;;;;;;4938315;29;20043;-78
2021/12/06 02:09:21;;;;;;;58.47;25.92;;;5.00;99.50;;;;;;4953674;29;20043;-79
2021/12/06 02:11:48;;;;;;;63.42;26.95;;;5.00;99.50;;;;;;4953892;28;20137;-78
2021/12/06 02:20:02;;;;;;;61.47;25.48;;;5.00;99.50;;;;;;4974979;28;20133;-79
2021/12/06 02:22:30;;;;;;;64.00;25.15;;;5.10;99.40;;;;;;4975958;28;20136;-78
2021/12/06 02:24:57;;;;;;;51.58;23.90;;;4.90;99.30;;;;;;4950438;29;20069;-79
2021/12/06 02:27:26;;;;;;;61.40;25.58;;;5.00;99.50;;;;;;4957551;28;20087;-79
2021/12/06 02:29:54;;;;;;;54.97;24.02;;;4.90;99.50;;;;;;4957003;29;20062;-79
2021/12/06 02:32:20;;;;;;;53.90;23.77;;;4.80;99.70;;;;;;4940931;29;20411;-79
2021/12/06 02:34:52;;;;;;;56.35;23.65;;;4.90;99.60;;;;;;4941197;29;20058;-78
2021/12/06 02:37:21;;;;;;;60.35;26.50;;;4.90;99.70;;;;;;4957426;28;20149;-78
2021/12/06 02:39:47;;;;;;;61.80;24.48;;;4.90;99.70;;;;;;4956718;28;20094;-78
2021/12/06 02:42:16;;;;;;;65.90;26.20;;;4.80;99.60;;;;;;4957220;28;20483;-78
2021/12/06 02:44:43;;;;;;;55.20;24.00;;;4.80;99.70;;;;;;4956858;28;20043;-78
2021/12/06 02:47:09;;;;;;;56.33;23.65;;;4.80;99.50;;;;;;4957074;28;20047;-78
2021/12/06 02:49:35;;;;;;;56.05;25.25;;;4.80;99.60;;;;;;4956944;28;20101;-78
2021/12/06 02:52:01;;;;;;;60.80;25.80;;;4.80;99.60;;;;;;4941011;29;20466;-79
2021/12/06 02:54:28;;;;;;;54.22;25.33;;;4.80;99.60;;;;;;4957050;28;20094;-78
2021/12/06 02:57:07;;;;;;;56.25;25.17;;;4.80;99.60;;;;;;4941008;29;20053;-78
2021/12/06 02:59:34;;;;;;;63.25;24.92;;;4.80;99.70;;;;;;4942031;29;20483;-79
2021/12/06 03:02:04;;;;;;;55.38;24.50;;;4.80;99.70;;;;;;4956670;28;20545;-78
2021/12/06 03:04:30;;;;;;;53.78;23.38;;;4.70;99.80;;;;;;4956883;28;20050;-78
2021/12/06 03:06:58;;;;;;;67.65;26.35;;;4.70;99.80;;;;;;4956491;28;20059;-78
2021/12/06 03:09:27;;;;;;;59.78;25.70;;;4.80;99.70;;;;;;4956622;28;20055;-78
2021/12/06 03:12:10;;;;;;;60.65;25.80;;;4.80;99.70;;;;;;4956605;28;20047;-78
2021/12/06 03:14:39;;;;;;;58.55;24.95;;;4.70;99.70;;;;;;4940545;29;20058;-78
2021/12/06 03:17:09;;;;;;;57.53;25.65;;;4.60;99.80;;;;;;4956582;28;20062;-78
2021/12/06 03:19:35;;;;;;;59.78;25.80;;;4.60;99.90;;;;;;4956060;28;20043;-78
2021/12/06 03:22:02;;;;;;;59.47;24.42;;;4.80;99.90;;;;;;4956551;28;20062;-78
2021/12/06 03:24:28;;;;;;;55.55;24.08;;;4.80;99.60;;;;;;4956118;28;20059;-78
2021/12/06 03:26:54;;;;;;;53.00;24.08;;;4.70;99.60;;;;;;4940278;29;20113;-78
2021/12/06 03:29:20;;;;;;;51.70;22.65;;;4.70;99.80;;;;;;4940062;29;20491;-78
2021/12/06 03:31:49;;;;;;;53.30;23.88;;;4.70;99.90;;;;;;4955514;28;20132;-78
2021/12/06 03:34:17;;;;;;;61.08;25.17;;;4.70;99.90;;;;;;4939207;29;20149;-78
2021/12/06 03:36:44;;;;;;;59.10;24.75;;;4.80;99.80;;;;;;4955912;28;20061;-78
2021/12/06 03:39:23;;;;;;;54.45;24.13;;;4.80;99.80;;;;;;4955838;28;20047;-79
2021/12/06 03:41:54;;;;;;;52.67;23.25;;;4.80;99.80;;;;;;4956137;28;20051;-78
2021/12/06 03:44:20;;;;;;;58.80;24.17;;;4.80;99.70;;;;;;4955919;28;20047;-78
2021/12/06 03:46:49;;;;;;;53.08;22.67;;;4.80;99.80;;;;;;4955797;28;20051;-78
2021/12/06 03:49:16;;;;;;;66.28;25.58;;;4.80;99.80;;;;;;4955568;29;20533;-78
2021/12/06 03:51:43;;;;;;;66.95;26.13;;;4.70;99.90;;;;;;4955569;28;20051;-77
2021/12/06 03:54:14;;;;;;;67.68;26.73;;;4.70;99.80;;;;;;4939793;29;20109;-78
2021/12/06 03:56:40;;;;;;;67.97;27.38;;;4.70;99.90;;;;;;4955860;29;20089;-78
2021/12/06 03:59:07;;;;;;;71.00;28.08;;;4.80;99.80;;;;;;4955697;28;20079;-78
2021/12/06 04:01:33;;;;;;;67.78;26.27;;;4.70;99.80;;;;;;4955354;29;20051;-78
2021/12/06 04:04:01;;;;;;;68.20;25.70;;;4.80;99.90;;;;;;4955368;28;20403;-78
2021/12/06 04:06:27;;;;;;;76.32;27.92;;;4.90;99.70;;;;;;4939692;29;20054;-79
2021/12/06 04:08:53;;;;;;;60.00;25.52;;;4.90;99.80;;;;;;4955460;28;20065;-78
2021/12/06 04:11:19;;;;;;;70.50;26.25;;;4.80;99.80;;;;;;4955463;29;20554;-79
2021/12/06 04:13:45;;;;;;;76.57;28.20;;;4.90;99.70;;;;;;4955516;28;20051;-78
2021/12/06 04:16:11;;;;;;;68.72;26.58;;;5.00;99.70;;;;;;4955546;28;20054;-78
2021/12/06 04:18:37;;;;;;;78.75;29.20;;;4.90;99.80;;;;;;4955195;28;20062;-78
2021/12/06 04:21:04;;;;;;;66.50;25.77;;;5.00;99.90;;;;;;4955401;28;20058;-79
2021/12/06 04:23:33;;;;;;;69.50;27.15;;;5.10;99.70;;;;;;4955428;28;20054;-78
2021/12/06 04:26:00;;;;;;;59.38;23.27;;;5.10;99.50;;;;;;4954962;28;20047;-78
2021/12/06 04:28:29;;;;;;;57.10;23.30;;;5.10;99.50;;;;;;4955253;29;20055;-78
2021/12/06 04:30:55;;;;;;;62.47;24.25;;;5.20;99.70;;;;;;4954240;28;20426;-78
2021/12/06 04:33:21;;;;;;;65.05;25.48;;;5.20;99.70;;;;;;4954927;29;20107;-78
2021/12/06 04:35:47;;;;;;;64.32;25.23;;;5.20;99.60;;;;;;4939173;29;20043;-78
2021/12/06 04:38:13;;;;;;;60.83;25.10;;;5.10;99.70;;;;;;4947624;29;20726;-79
2021/12/06 04:40:39;;;;;;;62.72;25.10;;;5.10;99.70;;;;;;4953671;29;20051;-79
2021/12/06 04:43:05;;;;;;;57.88;24.58;;;5.20;99.70;;;;;;4938728;29;20048;-78
2021/12/06 04:45:32;;;;;;;67.93;25.88;;;5.20;99.70;;;;;;4955060;28;20043;-78
2021/12/06 04:47:57;;;;;;;55.25;24.33;;;5.30;99.60;;;;;;4938578;29;20059;-78
2021/12/06 04:50:32;;;;;;;60.35;23.92;;;5.20;99.50;;;;;;4923088;29;20163;-78
2021/12/06 04:53:08;;;;;;;66.80;26.50;;;5.10;99.40;;;;;;4954926;29;20130;-78
2021/12/06 04:55:56;;;;;;;62.35;25.48;;;5.00;99.60;;;;;;4954733;29;20055;-78
2021/12/06 04:58:27;;;;;;;66.45;25.00;;;5.10;99.70;;;;;;4954629;29;20100;-78
2021/12/06 05:01:01;;;;;;;70.70;26.63;;;5.20;99.70;;;;;;4954018;29;20079;-78
2021/12/06 05:03:28;;;;;;;70.45;26.67;;;5.20;99.70;;;;;;4938466;29;20057;-78
2021/12/06 05:05:57;;;;;;;71.78;26.98;;;5.20;99.50;;;;;;4954769;29;20137;-78
2021/12/06 05:08:29;;;;;;;73.53;27.95;;;5.10;99.70;;;;;;4954553;29;20402;-79
2021/12/06 05:11:00;;;;;;;76.30;28.00;;;5.20;99.70;;;;;;4938571;29;20051;-78
2021/12/06 05:13:26;;;;;;;71.72;26.92;;;5.30;99.90;;;;;;4954758;29;20471;-78
2021/12/06 05:15:52;;;;;;;74.22;27.05;;;5.30;99.70;;;;;;4954605;29;20035;-79
2021/12/06 05:18:18;;;;;;;72.95;27.67;;;5.40;99.80;;;;;;4954170;29;20117;-78
2021/12/06 05:20:44;;;;;;;64.88;25.48;;;5.40;99.60;;;;;;4938536;29;20051;-78
2021/12/06 05:23:10;;;;;;;67.20;26.33;;;5.30;99.70;;;;;;4938332;29;20047;-78
2021/12/06 05:25:36;;;;;;;73.45;27.10;;;5.20;99.70;;;;;;4938348;29;20541;-78
2021/12/06 05:28:04;;;;;;;64.95;25.45;;;5.10;99.70;;;;;;4954544;29;20062;-78
2021/12/06 05:30:31;;;;;;;71.63;25.33;;;5.10;99.70;;;;;;4953843;29;20052;-78
2021/12/06 05:33:00;;;;;;;67.00;25.50;;;5.10;99.80;;;;;;4954005;29;20138;-78
2021/12/06 05:35:27;;;;;;;62.22;25.05;;;5.10;99.80;;;;;;4954354;29;20051;-78
2021/12/06 05:37:56;;;;;;;71.55;26.52;;;5.10;99.90;;;;;;4954279;29;20090;-79
2021/12/06 05:40:28;;;;;;;63.85;25.23;;;5.10;99.90;;;;;;4954263;29;20079;-79
2021/12/06 05:42:54;;;;;;;61.92;23.25;;;5.10;99.90;;;;;;4954301;29;20055;-78
2021/12/06 05:45:23;;;;;;;58.97;24.15;;;5.20;99.80;;;;;;4954212;29;20502;-78
2021/12/06 05:47:50;;;;;;;79.38;26.10;;;4.90;99.80;;;;;;4938150;29;20047;-78
2021/12/06 05:50:16;;;;;;;59.70;23.52;;;5.10;99.90;;;;;;4954168;29;20118;-78
2021/12/06 05:52:42;;;;;;;72.15;24.05;;;5.20;99.90;;;;;;4953782;29;20554;-78
2021/12/06 05:55:08;;;;;;;65.85;25.40;;;4.90;99.90;;;;;;4938206;29;20047;-78
2021/12/06 05:57:35;;;;;;;57.75;22.80;;;4.90;99.90;;;;;;4938738;29;20051;-78
2021/12/06 06:00:08;;;;;;;67.18;25.23;;;4.80;99.90;;;;;;4957250;29;20129;-78
2021/12/06 06:02:34;;;;;;;64.82;24.20;;;4.80;99.90;;;;;;4942128;29;20070;-77
2021/12/06 06:05:00;;;;;;;67.80;24.58;;;4.80;99.90;;;;;;4941836;29;20154;-78
2021/12/06 06:07:26;;;;;;;71.15;25.02;;;4.80;99.90;;;;;;4957536;29;20129;-79
2021/12/06 06:09:51;;;;;;;64.93;23.48;;;4.70;99.90;;;;;;4957852;29;20050;-78
2021/12/06 06:12:17;;;;;;;70.75;25.77;;;4.70;99.90;;;;;;4957947;29;20502;-78
2021/12/06 06:14:43;;;;;;;65.88;23.98;;;4.90;99.90;;;;;;4957913;29;20055;-79
2021/12/06 06:17:12;;;;;;;65.80;23.13;;;4.80;99.90;;;;;;4957638;29;20465;-78
2021/12/06 06:19:42;;;;;;;73.88;26.20;;;4.80;99.90;;;;;;4957124;29;20089;-78
2021/12/06 06:22:08;;;;;;;63.08;23.33;;;4.80;99.90;;;;;;4941585;29;20055;-78
2021/12/06 06:24:34;;;;;;;66.43;23.50;;;4.60;99.90;;;;;;4941726;29;20134;-78
2021/12/06 06:27:00;;;;;;;71.22;23.55;;;4.60;99.90;;;;;;4941364;29;20047;-78
2021/12/06 06:29:25;;;;;;;74.15;24.05;;;4.70;99.90;;;;;;4941330;29;20050;-78
2021/12/06 06:31:51;;;;;;;69.45;24.77;;;4.40;99.90;;;;;;4956601;29;20082;-78
2021/12/06 06:34:17;;;;;;;87.88;27.05;;;4.20;99.90;;;;;;4957042;29;20105;-78
2021/12/06 06:36:43;;;;;;;61.00;23.08;;;4.30;99.90;;;;;;4940788;29;20134;-78
2021/12/06 06:39:10;;;;;;;87.63;28.75;;;4.50;99.90;;;;;;4956863;29;20043;-78
2021/12/06 06:41:36;;;;;;;74.90;27.15;;;4.70;99.90;;;;;;4956915;29;20505;-78
2021/12/06 06:44:03;;;;;;;84.97;26.98;;;4.60;99.90;;;;;;4957097;29;20055;-78
2021/12/06 06:46:29;;;;;;;80.82;26.02;;;4.70;99.90;;;;;;4941121;29;20491;-79
2021/12/06 06:48:56;;;;;;;65.88;23.17;;;4.70;99.90;;;;;;4956855;29;20058;-79
2021/12/06 06:51:23;;;;;;;65.68;22.92;;;4.80;99.90;;;;;;4957190;29;20051;-78
2021/12/06 06:53:49;;;;;;;71.18;24.58;;;4.80;99.90;;;;;;4940820;29;20483;-78
2021/12/06 06:56:15;;;;;;;81.57;25.38;;;4.60;99.90;;;;;;4940808;29;20074;-78
2021/12/06 06:58:41;;;;;;;71.78;23.88;;;4.60;99.90;;;;;;4957033;29;20047;-78
2021/12/06 07:01:06;;;;;;;75.18;25.45;;;4.30;99.90;;;;;;4956389;29;20098;-78
2021/12/06 07:03:32;;;;;;;86.65;26.23;;;4.30;99.90;;;;;;4956582;29;20047;-78
2021/12/06 07:06:02;;;;;;;78.68;25.50;;;4.30;99.90;;;;;;4956544;29;20051;-79
2021/12/06 07:08:28;;;;;;;75.68;25.17;;;4.20;99.90;;;;;;4956702;28;20059;-78
2021/12/06 07:10:56;;;;;;;73.90;24.83;;;4.10;99.90;;;;;;4939661;29;20051;-78
2021/12/06 07:13:26;;;;;;;82.07;25.83;;;4.00;99.90;;;;;;4956414;29;20517;-78
2021/12/06 07:15:52;;;;;;;73.53;23.25;;;4.10;99.90;;;;;;4956346;29;20139;-79
2021/12/06 07:18:18;;;;;;;76.28;25.30;;;4.10;99.90;;;;;;4956455;29;20126;-78
2021/12/06 07:20:44;;;;;;;71.40;23.75;;;4.30;99.90;;;;;;4940547;29;20051;-78
2021/12/06 07:23:10;;;;;;;65.78;23.50;;;4.40;99.90;;;;;;4956564;29;20066;-79
2021/12/06 07:25:36;;;;;;;92.78;28.85;;;4.30;99.90;;;;;;4956269;29;20487;-78
2021/12/06 07:28:05;;;;;;;77.07;25.73;;;4.40;99.90;;;;;;4956389;29;20062;-78
2021/12/06 07:30:30;;;;;;;89.55;26.90;;;4.50;99.90;;;;;;4955628;29;20047;-80
2021/12/06 07:32:57;;;;;;;84.43;27.02;;;4.60;99.90;;;;;;4955505;29;20052;-79
2021/12/06 07:35:23;;;;;;;90.75;29.55;;;4.70;99.90;;;;;;4956155;29;20151;-79
2021/12/06 07:37:49;;;;;;;88.53;26.42;;;4.70;99.90;;;;;;4955995;29;20187;-78
2021/12/06 07:40:17;;;;;;;68.82;24.30;;;4.60;99.90;;;;;;4955996;29;20513;-78
2021/12/06 07:42:42;;;;;;;70.45;24.10;;;4.60;99.90;;;;;;4955722;29;20051;-78
2021/12/06 07:45:10;;;;;;;95.75;27.80;;;4.60;99.90;;;;;;4955951;29;20050;-79
2021/12/06 07:47:37;;;;;;;79.30;24.50;;;4.80;99.90;;;;;;4955868;29;20054;-78
2021/12/06 07:50:06;;;;;;;82.57;27.15;;;4.70;99.90;;;;;;4955773;29;20058;-78
2021/12/06 07:52:31;;;;;;;83.22;25.85;;;4.50;99.90;;;;;;4955813;29;20086;-78
2021/12/06 07:54:59;;;;;;;85.18;26.27;;;4.60;99.90;;;;;;4955791;29;20047;-78
2021/12/06 07:57:27;;;;;;;81.82;24.92;;;4.60;99.90;;;;;;4955550;29;20525;-78
2021/12/06 07:59:53;;;;;;;68.25;23.95;;;4.60;99.90;;;;;;4923529;29;20061;-76
2021/12/06 08:02:19;;;;;;;85.05;26.55;;;4.60;99.90;;;;;;4955416;29;20043;-75
2021/12/06 08:04:48;;;;;;;79.32;25.08;;;4.70;99.90;;;;;;4955659;29;20054;-76
2021/12/06 08:07:14;;;;;;;91.63;27.48;;;4.60;99.90;;;;;;4960905;29;20138;-80
2021/12/06 08:09:40;;;;;;;81.47;25.85;;;4.70;99.90;;;;;;4955573;29;20058;-75
2021/12/06 08:12:06;;;;;;;91.55;26.88;;;4.60;99.90;;;;;;4955150;29;20043;-75
2021/12/06 08:14:31;;;;;;;83.00;26.80;;;4.60;99.90;;;;;;4955238;29;20547;-74
2021/12/06 08:16:57;;;;;;;91.78;26.83;;;4.60;99.90;;;;;;4955534;29;20137;-73
2021/12/06 08:19:23;;;;;;;88.47;27.38;;;4.50;99.90;;;;;;4955196;29;20098;-74
2021/12/06 08:21:49;;;;;;;86.82;27.10;;;4.60;99.90;;;;;;4954930;28;20437;-73
2021/12/06 08:24:16;;;;;;;102.70;27.50;;;4.50;99.90;;;;;;4955020;29;20051;-74
2021/12/06 08:26:42;;;;;;;84.45;26.73;;;4.60;99.90;;;;;;4955303;29;20043;-75
2021/12/06 08:29:11;;;;;;;88.38;27.40;;;4.60;99.90;;;;;;4955053;29;20490;-74
2021/12/06 08:31:37;;;;;;;85.18;26.75;;;4.70;99.90;;;;;;4938597;29;20063;-74
2021/12/06 08:34:04;;;;;;;97.00;28.67;;;4.80;99.90;;;;;;4939105;29;20055;-73
2021/12/06 08:36:30;;;;;;;91.25;26.92;;;4.80;99.90;;;;;;4955144;29;20047;-73
2021/12/06 08:38:57;;;;;;;76.97;25.10;;;4.90;99.90;;;;;;4954849;29;20517;-74
2021/12/06 08:41:26;;;;;;;84.38;24.98;;;4.70;99.90;;;;;;4954750;29;20101;-74
2021/12/06 08:43:53;;;;;;;82.90;26.10;;;4.90;99.90;;;;;;4954980;29;20054;-73
2021/12/06 08:46:26;;;;;;;79.35;24.65;;;5.00;99.90;;;;;;4938967;29;20059;-73
2021/12/06 08:48:53;;;;;;;88.45;26.90;;;4.90;99.90;;;;;;4955010;29;20098;-74
2021/12/06 08:51:30;;;;;;;86.15;26.85;;;4.80;99.90;;;;;;4954638;29;20491;-72
2021/12/06 08:54:00;;;;;;;76.78;23.42;;;4.80;99.90;;;;;;4954646;29;20483;-74
2021/12/06 08:56:27;;;;;;;75.88;24.60;;;4.70;99.90;;;;;;4938844;29;20086;-74
2021/12/06 08:58:54;;;;;;;73.68;23.00;;;4.60;99.90;;;;;;4954467;29;20051;-74
2021/12/06 09:01:20;;;;;;;77.60;24.17;;;4.60;99.90;;;;;;4954360;29;20545;-73
2021/12/06 09:03:47;;;;;;;72.85;24.83;;;4.60;99.90;;;;;;4954627;29;20051;-73
2021/12/06 09:06:13;;;;;;;77.88;24.45;;;4.60;99.90;;;;;;4954580;29;20051;-73
2021/12/06 09:08:41;;;;;;;69.93;23.20;;;4.70;99.90;;;;;;4954459;29;20059;-74
2021/12/06 09:11:09;;;;;;;66.55;21.77;;;4.70;99.90;;;;;;4954568;29;20055;-73
2021/12/06 09:13:35;;;;;;;67.63;22.52;;;4.60;99.90;;;;;;4954554;29;20138;-73
2021/12/06 09:16:04;;;;;;;63.83;22.83;;;4.70;99.90;;;;;;4954381;29;20130;-73
2021/12/06 09:18:34;;;;;;;64.10;22.25;;;4.80;99.90;;;;;;4954399;29;20051;-73
2021/12/06 09:21:00;;;;;;;60.30;20.92;;;4.80;99.90;;;;;;4944455;29;20123;-76
2021/12/06 09:23:26;;;;;;;66.68;23.13;;;4.80;99.90;;;;;;4951400;29;20153;-74
2021/12/06 09:25:52;;;;;;;58.10;20.65;;;4.90;99.90;;;;;;4935379;29;20059;-74
2021/12/06 09:28:18;;;;;;;52.22;20.75;;;4.80;99.90;;;;;;4934766;29;20062;-74
2021/12/06 09:30:44;;;;;;;56.80;21.10;;;4.90;99.90;;;;;;4950148;29;20043;-75
2021/12/06 09:33:12;;;;;;;62.00;20.50;;;4.80;99.90;;;;;;4940071;29;20050;-74
2021/12/06 09:35:41;;;;;;;57.55;21.30;;;4.80;99.90;;;;;;4958046;29;20054;-75
2021/12/06 09:38:08;;;;;;;63.20;21.75;;;4.80;99.90;;;;;;4954223;29;20546;-74
2021/12/06 09:40:36;;;;;;;59.10;20.92;;;4.90;99.90;;;;;;4939872;29;20091;-74
2021/12/06 09:43:05;;;;;;;59.72;21.85;;;4.90;99.90;;;;;;4938688;29;20122;-74
2021/12/06 09:45:32;;;;;;;59.67;20.17;;;5.10;99.90;;;;;;4938554;29;20054;-75
2021/12/06 09:48:00;;;;;;;54.50;19.45;;;5.10;99.90;;;;;;4940448;29;20043;-74
2021/12/06 09:50:32;;;;;;;50.65;20.27;;;5.00;99.90;;;;;;4957809;29;20094;-73
2021/12/06 09:53:00;;;;;;;54.17;20.02;;;5.10;99.80;;;;;;4957896;29;20059;-73
2021/12/06 09:55:29;;;;;;;52.17;19.92;;;5.10;99.70;;;;;;4957570;29;20054;-75
2021/12/06 09:57:55;;;;;;;50.05;20.27;;;5.10;99.70;;;;;;4942179;29;20051;-74
2021/12/06 10:00:24;;;;;;;46.97;17.50;;;4.90;99.60;;;;;;4957141;29;20051;-75
2021/12/06 10:02:51;;;;;;;46.42;17.08;;;4.80;99.90;;;;;;4956914;29;20479;-75
2021/12/06 10:05:17;;;;;;;41.80;15.13;;;4.70;99.90;;;;;;4957710;29;20131;-74
2021/12/06 10:07:43;;;;;;;47.90;17.40;;;4.40;99.90;;;;;;4957297;29;20553;-75
2021/12/06 10:10:12;;;;;;;49.85;16.83;;;4.40;99.90;;;;;;4957502;29;20046;-75
2021/12/06 10:12:38;;;;;;;46.22;17.58;;;4.30;99.90;;;;;;4941477;29;20055;-75
2021/12/06 10:15:05;;;;;;;47.15;16.77;;;4.40;99.90;;;;;;4953887;29;20086;-76
2021/12/06 10:17:34;;;;;;;45.95;17.67;;;4.40;99.90;;;;;;4937968;29;20055;-75
2021/12/06 10:20:00;;;;;;;43.17;17.15;;;4.30;99.90;;;;;;4923983;29;20510;-73
2021/12/06 10:22:27;;;;;;;45.97;18.55;;;4.50;99.90;;;;;;4941287;29;20046;-73
2021/12/06 10:24:56;;;;;;;43.13;16.80;;;4.50;99.90;;;;;;4938951;29;20055;-73
2021/12/06 10:27:23;;;;;;;44.58;17.52;;;4.70;99.90;;;;;;4953326;29;20055;-74
2021/12/06 10:30:00;;;;;;;42.67;16.10;;;4.70;99.80;;;;;;4953684;29;20047;-75
2021/12/06 10:32:31;;;;;;;43.38;16.58;;;4.50;99.90;;;;;;4952670;29;20063;-74
2021/12/06 10:35:02;;;;;;;46.85;17.75;;;4.50;99.90;;;;;;4940286;29;20122;-71
2021/12/06 10:37:37;;;;;;;45.53;17.17;;;4.60;99.90;;;;;;4957356;29;20059;-74
2021/12/06 10:40:11;;;;;;;45.15;17.27;;;4.80;99.90;;;;;;4940778;29;20055;-74
2021/12/06 10:42:44;;;;;;;44.17;16.65;;;4.70;99.90;;;;;;4957099;28;20055;-75
2021/12/06 10:45:26;;;;;;;36.40;14.77;;;4.60;99.90;;;;;;4941228;29;20061;-74
2021/12/06 10:48:22;;;;;;;47.63;17.42;;;4.60;99.90;;;;;;4956922;29;20043;-75
2021/12/06 10:50:47;;;;;;;48.80;17.98;;;4.50;99.90;;;;;;4957739;29;20058;-75
2021/12/06 10:53:14;;;;;;;45.47;16.60;;;4.40;99.90;;;;;;4957029;29;20047;-76
2021/12/06 10:55:42;;;;;;;48.67;18.40;;;4.50;99.90;;;;;;4956787;29;20130;-76
2021/12/06 10:58:13;;;;;;;48.88;18.60;;;4.50;99.90;;;;;;4956963;28;20126;-76
2021/12/06 11:00:51;;;;;;;45.80;17.42;;;4.60;99.90;;;;;;4956373;29;20086;-75
2021/12/06 11:03:35;;;;;;;48.13;18.02;;;4.70;99.90;;;;;;4956571;29;20062;-75
2021/12/06 11:06:07;;;;;;;45.08;17.92;;;4.70;99.90;;;;;;4956737;28;20403;-74
2021/12/06 11:08:37;;;;;;;43.00;17.70;;;4.60;99.90;;;;;;4956635;28;20055;-75
2021/12/06 11:11:27;;;;;;;49.17;18.20;;;4.60;99.90;;;;;;4925006;29;20506;-74
2021/12/06 11:13:59;;;;;;;50.55;17.00;;;4.40;99.90;;;;;;4956485;28;20055;-74
2021/12/06 11:16:31;;;;;;;45.55;17.50;;;4.20;99.90;;;;;;4956712;29;20059;-73
2021/12/06 11:19:02;;;;;;;59.70;22.00;;;4.20;99.90;;;;;;4955922;29;20047;-74
2021/12/06 11:21:42;;;;;;;64.68;22.63;;;4.30;99.90;;;;;;4956389;28;20051;-74
2021/12/06 11:24:27;;;;;;;59.47;22.83;;;4.50;99.90;;;;;;4956041;28;20514;-73
2021/12/06 11:26:54;;;;;;;69.03;25.83;;;4.60;99.90;;;;;;4956215;29;20537;-74
2021/12/06 11:29:25;;;;;;;66.25;23.42;;;4.60;99.90;;;;;;4956291;29;20128;-74
2021/12/06 11:32:09;;;;;;;68.20;25.00;;;4.60;99.90;;;;;;4956742;28;20483;-74
2021/12/06 11:34:47;;;;;;;67.55;24.55;;;4.60;99.90;;;;;;4955939;29;20063;-74
2021/12/06 11:37:21;;;;;;;71.43;26.02;;;4.50;99.90;;;;;;4940208;29;20126;-74
2021/12/06 11:40:23;;;;;;;62.67;23.02;;;4.50;99.90;;;;;;4955853;28;20051;-74
2021/12/06 11:43:04;;;;;;;53.20;20.60;;;4.60;99.90;;;;;;4954747;29;20062;-74
2021/12/06 11:45:39;;;;;;;55.30;20.55;;;4.60;99.90;;;;;;4956108;29;20110;-74
2021/12/06 11:48:14;;;;;;;53.03;19.45;;;4.60;99.90;;;;;;4956078;28;20069;-74
2021/12/06 11:51:02;;;;;;;46.80;19.08;;;4.50;99.90;;;;;;4955881;29;20051;-74
2021/12/06 11:53:34;;;;;;;49.70;19.25;;;4.50;99.90;;;;;;4955430;28;20146;-74
2021/12/06 11:56:05;;;;;;;51.28;18.60;;;4.50;99.90;;;;;;4954765;28;20043;-74
2021/12/06 11:58:38;;;;;;;46.78;18.85;;;4.60;99.90;;;;;;4956151;28;20055;-74
2021/12/06 12:01:12;;;;;;;44.47;17.88;;;4.60;99.90;;;;;;4955528;29;20063;-74
2021/12/06 12:03:40;;;;;;;49.35;18.77;;;4.50;99.90;;;;;;4956828;28;20059;-74
2021/12/06 12:06:24;;;;;;;50.78;19.40;;;4.60;99.90;;;;;;4955416;28;20062;-74
2021/12/06 12:09:01;;;;;;;41.45;16.85;;;4.80;99.90;;;;;;4956595;29;20098;-80
2021/12/06 12:11:26;;;;;;;45.17;17.42;;;5.10;99.90;;;;;;4955630;28;20047;-81
2021/12/06 12:13:53;;;;;;;37.85;18.08;;;5.60;99.90;;;;;;4955598;28;20043;-73
2021/12/06 12:16:21;;;;;;;40.47;16.88;;;5.70;99.80;;;;;;4955173;28;20460;-73
2021/12/06 12:18:47;;;;;;;38.72;15.75;;;5.40;99.10;;;;;;4939459;29;20051;-73
2021/12/06 12:21:14;;;;;;;39.83;16.00;;;5.20;99.40;;;;;;4955575;29;20070;-74
2021/12/06 12:23:42;;;;;;;41.28;15.88;;;5.20;99.60;;;;;;4944605;29;20138;-75
2021/12/06 12:26:12;;;;;;;37.83;15.52;;;5.10;99.60;;;;;;4955556;28;20051;-74
2021/12/06 12:29:00;;;;;;;38.50;16.10;;;5.10;99.80;;;;;;4952668;28;20046;-76
2021/12/06 12:31:30;;;;;;;33.83;15.27;;;5.00;99.70;;;;;;4944400;29;20043;-75
2021/12/06 12:33:56;;;;;;;37.67;16.02;;;5.00;99.80;;;;;;4955134;29;20055;-74
2021/12/06 12:36:24;;;;;;;42.78;16.70;;;4.70;99.70;;;;;;4955261;29;20047;-75
2021/12/06 12:38:54;;;;;;;39.03;16.77;;;4.80;99.90;;;;;;4954834;29;20051;-74
2021/12/06 12:41:22;;;;;;;40.88;18.20;;;5.00;99.90;;;;;;4954754;29;20051;-74
2021/12/06 12:43:54;;;;;;;43.22;17.42;;;5.10;99.80;;;;;;4954547;29;20063;-74
2021/12/06 12:46:30;;;;;;;38.80;17.00;;;5.20;99.70;;;;;;4938266;29;20057;-75
2021/12/06 12:49:02;;;;;;;37.30;15.48;;;4.90;99.70;;;;;;4935906;29;20336;-76
2021/12/06 12:51:35;;;;;;;43.25;17.45;;;4.80;99.90;;;;;;4939252;29;20051;-75
2021/12/06 12:54:04;;;;;;;40.67;16.70;;;4.90;99.90;;;;;;4954172;29;20118;-74
2021/12/06 12:56:32;;;;;;;45.38;17.58;;;4.90;99.90;;;;;;4954244;29;20505;-74
2021/12/06 12:58:59;;;;;;;46.10;18.52;;;4.90;99.90;;;;;;4952238;29;20054;-75
2021/12/06 13:01:27;;;;;;;45.20;18.98;;;5.00;99.90;;;;;;4950513;29;20518;-75